createdAt,value
2017-12-24T00:02:20.043Z,12.70
2017-12-24T00:05:09.604Z,12.65
2017-12-24T00:07:47.188Z,13.55
2017-12-24T00:10:29.817Z,10.55
2017-12-24T00:13:09.909Z,11.65
2017-12-24T00:24:42.666Z,8.82
2017-12-24T00:27:27.175Z,9.30
2017-12-24T00:30:05.383Z,8.95
2017-12-24T00:32:44.857Z,9.43
2017-12-24T00:35:21.129Z,10.77
2017-12-24T00:38:04.384Z,10.32
2017-12-24T00:40:41.501Z,11.70
2017-12-24T00:43:21.385Z,8.50
2017-12-24T00:45:58.322Z,9.75
2017-12-24T00:48:39.263Z,7.47
2017-12-24T00:51:27.258Z,8.85
2017-12-24T00:54:07.859Z,7.72
2017-12-24T00:56:48.926Z,7.15
2017-12-24T00:59:32.997Z,7.72
2017-12-24T01:04:53.888Z,7.00
2017-12-24T01:07:30.342Z,7.72
2017-12-24T01:10:06.945Z,7.78
2017-12-24T01:15:38.756Z,8.70
2017-12-24T01:18:27.279Z,9.20
2017-12-24T01:21:04.319Z,13.60
2017-12-24T01:23:39.941Z,10.60
2017-12-24T01:26:21.959Z,8.70
2017-12-24T01:29:00.795Z,7.37
2017-12-24T01:31:36.857Z,9.07
2017-12-24T01:34:21.428Z,8.60
2017-12-24T01:37:00.723Z,9.10
2017-12-24T01:39:42.975Z,7.60
2017-12-24T01:42:23.466Z,6.93
2017-12-24T01:45:03.660Z,8.30
2017-12-24T01:47:55.416Z,7.72
2017-12-24T01:50:30.408Z,9.77
2017-12-24T01:53:14.150Z,8.48
2017-12-24T01:55:53.268Z,8.20
2017-12-24T01:58:32.516Z,5.80
2017-12-24T02:01:06.013Z,11.05
2017-12-24T02:17:23.061Z,6.80
2017-12-24T02:19:57.296Z,9.18
2017-12-24T02:22:43.840Z,6.37
2017-12-24T02:25:18.464Z,10.50
2017-12-24T02:28:01.152Z,6.75
2017-12-24T02:30:37.606Z,7.05
2017-12-24T02:33:16.886Z,7.82
2017-12-24T02:35:55.372Z,10.35
2017-12-24T02:38:31.591Z,7.62
2017-12-24T02:41:18.016Z,7.32
2017-12-24T02:43:53.600Z,5.93
2017-12-24T02:46:35.007Z,4.65
2017-12-24T02:49:13.812Z,7.35
2017-12-24T02:51:49.312Z,4.60
2017-12-24T02:54:28.529Z,5.65
2017-12-24T02:57:09.404Z,6.03
2017-12-24T02:59:48.989Z,10.65
2017-12-24T03:02:33.348Z,6.65
2017-12-24T03:05:14.811Z,8.75
2017-12-24T03:10:44.880Z,6.78
2017-12-24T03:13:19.732Z,7.72
2017-12-24T03:16:01.630Z,6.05
2017-12-24T03:18:44.120Z,5.47
2017-12-24T03:21:29.747Z,5.65
2017-12-24T03:24:09.463Z,5.40
2017-12-24T03:27:06.121Z,7.47
2017-12-24T03:29:46.276Z,8.82
2017-12-24T03:32:20.966Z,7.18
2017-12-24T03:34:56.543Z,9.10
2017-12-24T03:37:31.832Z,6.32
2017-12-24T03:40:12.097Z,6.47
2017-12-24T03:42:54.084Z,9.15
2017-12-24T03:48:36.289Z,9.02
2017-12-24T03:51:15.847Z,7.07
2017-12-24T03:53:59.936Z,12.27
2017-12-24T03:56:42.901Z,6.97
2017-12-24T03:59:25.386Z,13.05
2017-12-24T04:02:14.528Z,10.95
2017-12-24T04:04:53.480Z,12.25
2017-12-24T04:07:35.379Z,6.95
2017-12-24T04:13:01.954Z,8.10
2017-12-24T04:15:44.523Z,9.32
2017-12-24T04:18:42.746Z,11.35
2017-12-24T04:21:16.637Z,9.73
2017-12-24T04:23:53.047Z,10.25
2017-12-24T04:26:29.819Z,7.60
2017-12-24T04:29:13.009Z,7.43
2017-12-24T04:31:53.133Z,6.60
2017-12-24T04:34:39.092Z,9.98
2017-12-24T04:37:16.413Z,9.30
2017-12-24T04:40:01.531Z,6.55
2017-12-24T04:42:46.359Z,7.10
2017-12-24T04:45:25.310Z,7.30
2017-12-24T04:48:00.993Z,9.15
2017-12-24T04:50:47.854Z,8.23
2017-12-24T04:53:26.369Z,11.18
2017-12-24T04:56:10.585Z,9.82
2017-12-24T04:58:53.839Z,10.45
2017-12-24T05:01:33.212Z,8.38
2017-12-24T05:04:22.655Z,6.65
2017-12-24T05:07:07.741Z,6.10
2017-12-24T05:09:43.916Z,5.32
2017-12-24T05:12:26.508Z,7.80
2017-12-24T05:15:11.727Z,5.60
2017-12-24T05:20:37.273Z,7.93
2017-12-24T05:23:20.373Z,6.85
2017-12-24T05:25:56.769Z,6.05
2017-12-24T05:28:34.556Z,7.37
2017-12-24T05:31:12.171Z,5.32
2017-12-24T05:33:47.688Z,5.25
2017-12-24T05:39:14.522Z,5.82
2017-12-24T05:42:01.925Z,4.35
2017-12-24T05:44:38.822Z,3.70
2017-12-24T05:47:14.700Z,4.57
2017-12-24T05:49:54.141Z,3.87
2017-12-24T05:52:41.898Z,4.68
2017-12-24T05:55:17.959Z,3.80
2017-12-24T20:48:41.442Z,43.08
2017-12-24T20:51:15.258Z,50.80
2017-12-24T20:53:48.923Z,45.25
2017-12-24T20:56:22.668Z,33.78
2017-12-24T20:58:56.341Z,37.50
2017-12-24T21:01:29.964Z,34.70
2017-12-24T21:04:03.543Z,29.00
2017-12-24T21:06:37.203Z,31.75
2017-12-24T21:09:10.854Z,30.67
2017-12-24T21:11:45.285Z,27.10
2017-12-24T21:14:29.106Z,24.98
2017-12-24T21:17:03.813Z,28.83
2017-12-24T21:19:37.443Z,26.60
2017-12-24T21:22:11.060Z,24.77
2017-12-24T21:24:44.731Z,25.88
2017-12-24T21:27:18.437Z,25.67
2017-12-24T21:29:52.030Z,25.80
2017-12-24T21:32:25.588Z,28.08
2017-12-24T21:34:59.197Z,23.80
2017-12-24T21:37:32.790Z,19.65
2017-12-24T21:40:06.513Z,13.55
2017-12-24T21:42:40.147Z,15.05
2017-12-24T21:45:13.880Z,15.52
2017-12-24T21:47:47.510Z,14.05
2017-12-24T21:50:21.225Z,17.25
2017-12-24T21:52:56.970Z,15.25
2017-12-24T21:55:30.919Z,14.77
2017-12-24T21:58:05.396Z,14.95
2017-12-24T22:00:39.252Z,16.40
2017-12-24T22:03:12.812Z,19.05
2017-12-24T22:05:46.461Z,16.40
2017-12-24T22:08:24.573Z,18.20
2017-12-24T22:11:06.076Z,19.65
2017-12-24T22:13:40.649Z,16.58
2017-12-24T22:16:16.094Z,19.67
2017-12-24T22:19:00.496Z,16.40
2017-12-24T22:21:38.065Z,16.15
2017-12-24T22:24:15.683Z,16.30
2017-12-24T22:26:52.925Z,18.52
2017-12-24T22:29:27.344Z,16.37
2017-12-24T22:32:01.022Z,17.10
2017-12-24T22:34:35.413Z,15.85
2017-12-24T22:37:08.998Z,17.23
2017-12-24T22:39:42.625Z,16.33
2017-12-24T22:42:16.510Z,15.32
2017-12-24T22:44:50.054Z,12.25
2017-12-24T22:47:23.671Z,9.73
2017-12-24T22:49:58.414Z,9.88
2017-12-24T22:52:32.090Z,8.43
2017-12-24T22:55:05.747Z,9.60
2017-12-24T22:57:53.368Z,12.68
2017-12-24T23:00:30.280Z,16.20
2017-12-24T23:03:05.834Z,20.65
2017-12-24T23:05:41.511Z,18.73
2017-12-24T23:08:16.961Z,18.67
2017-12-24T23:10:50.931Z,20.42
2017-12-24T23:13:25.488Z,19.05
2017-12-24T23:16:01.707Z,17.27
2017-12-24T23:18:35.442Z,15.77
2017-12-24T23:21:09.301Z,14.40
2017-12-24T23:23:44.134Z,12.95
2017-12-24T23:26:18.165Z,13.82
2017-12-24T23:28:53.585Z,12.70
2017-12-24T23:31:27.408Z,17.98
2017-12-24T23:34:01.742Z,14.52
2017-12-24T23:36:36.086Z,19.02
2017-12-24T23:39:10.623Z,18.23
2017-12-24T23:41:45.149Z,18.90
2017-12-24T23:44:18.961Z,22.25
2017-12-24T23:46:53.733Z,21.40
2017-12-24T23:49:27.505Z,23.40
2017-12-24T23:52:01.380Z,27.98
2017-12-24T23:54:36.437Z,24.05
2017-12-24T23:57:10.455Z,24.23
2017-12-24T23:59:44.172Z,24.85
